createdAt,value
2019-01-25T00:01:46.945Z,79.77
2019-01-25T00:04:31.049Z,77.20
2019-01-25T00:07:15.198Z,86.87
2019-01-25T00:10:00.265Z,70.10
2019-01-25T00:12:42.738Z,75.87
2019-01-25T00:15:27.520Z,76.80
2019-01-25T00:18:12.498Z,76.77
2019-01-25T00:20:57.510Z,75.37
2019-01-25T00:23:42.633Z,73.10
2019-01-25T00:26:27.774Z,74.93
2019-01-25T00:29:12.858Z,79.33
2019-01-25T00:31:57.297Z,79.73
2019-01-25T00:34:39.717Z,82.13
2019-01-25T00:37:31.058Z,73.47
2019-01-25T00:40:15.797Z,68.43
2019-01-25T00:43:00.662Z,73.60
2019-01-25T00:45:44.870Z,68.27
2019-01-25T00:48:29.941Z,77.00
2019-01-25T00:51:14.982Z,74.10
2019-01-25T00:54:00.077Z,79.60
2019-01-25T00:56:45.001Z,76.60
2019-01-25T00:59:29.986Z,75.90
2019-01-25T01:02:12.460Z,74.20
2019-01-25T01:05:04.119Z,74.63
2019-01-25T01:07:50.870Z,72.37
2019-01-25T01:10:35.140Z,78.77
2019-01-25T01:13:20.151Z,76.03
2019-01-25T01:16:05.081Z,77.10
2019-01-25T01:18:50.112Z,98.93
2019-01-25T01:21:34.253Z,76.77
2019-01-25T01:24:16.707Z,84.40
2019-01-25T01:27:01.402Z,92.10
2019-01-25T01:29:46.399Z,82.50
2019-01-25T01:32:30.620Z,96.00
2019-01-25T01:35:14.888Z,84.73
2019-01-25T01:37:59.895Z,89.77
2019-01-25T01:40:42.339Z,90.00
2019-01-25T01:43:33.654Z,89.40
2019-01-25T01:46:18.394Z,86.40
2019-01-25T01:49:03.390Z,84.77
2019-01-25T01:51:48.311Z,96.10
2019-01-25T01:54:32.521Z,92.47
2019-01-25T01:57:17.490Z,96.03
2019-01-25T01:59:59.947Z,94.03
2019-01-25T02:02:44.549Z,86.23
2019-01-25T02:05:28.688Z,91.47
2019-01-25T02:08:13.630Z,92.20
2019-01-25T02:10:58.551Z,90.83
2019-01-25T02:13:42.810Z,95.73
2019-01-25T02:16:27.904Z,91.13
2019-01-25T02:19:12.901Z,84.20
2019-01-25T02:21:57.982Z,112.03
2019-01-25T02:24:43.022Z,99.70
2019-01-25T02:27:27.977Z,101.90
2019-01-25T02:30:12.239Z,92.03
2019-01-25T02:32:57.274Z,94.43
2019-01-25T02:35:42.279Z,98.97
2019-01-25T02:38:26.518Z,94.67
2019-01-25T02:41:11.469Z,101.40
2019-01-25T02:43:55.786Z,98.03
2019-01-25T02:46:40.667Z,109.07
2019-01-25T02:49:24.859Z,104.90
2019-01-25T02:52:09.929Z,99.40
2019-01-25T02:54:52.347Z,101.43
2019-01-25T02:57:37.009Z,95.63
2019-01-25T03:00:22.089Z,106.90
2019-01-25T03:03:07.171Z,109.80
2019-01-25T03:05:52.103Z,101.80
2019-01-25T03:08:37.196Z,99.30
2019-01-25T03:11:21.370Z,110.17
2019-01-25T03:14:05.585Z,113.37
2019-01-25T03:16:50.521Z,107.33
2019-01-25T03:19:35.514Z,110.47
2019-01-25T03:22:20.625Z,108.07
2019-01-25T03:25:03.776Z,113.73
2019-01-25T03:27:48.759Z,106.83
2019-01-25T03:30:33.168Z,101.10
2019-01-25T03:33:18.240Z,108.33
2019-01-25T03:36:02.334Z,124.43
2019-01-25T03:38:46.763Z,109.10
2019-01-25T03:41:31.801Z,112.17
2019-01-25T03:44:16.810Z,101.53
2019-01-25T03:47:01.854Z,112.73
2019-01-25T03:49:44.318Z,117.03
2019-01-25T03:52:29.104Z,119.47
2019-01-25T03:55:14.095Z,109.53
2019-01-25T03:57:59.161Z,114.20
2019-01-25T04:00:44.116Z,106.90
2019-01-25T04:03:28.364Z,111.60
2019-01-25T04:06:13.422Z,107.90
2019-01-25T04:08:58.445Z,125.30
2019-01-25T04:11:43.502Z,122.07
2019-01-25T04:14:28.534Z,130.53
2019-01-25T04:17:13.451Z,111.90
2019-01-25T04:19:58.376Z,115.27
2019-01-25T04:22:43.397Z,121.60
2019-01-25T04:25:28.466Z,128.73
2019-01-25T04:28:13.409Z,107.20
2019-01-25T04:30:58.309Z,118.43
2019-01-25T04:33:40.758Z,126.30
2019-01-25T04:36:32.177Z,117.23
2019-01-25T04:39:16.555Z,121.17
2019-01-25T04:42:01.746Z,123.13
2019-01-25T04:44:46.600Z,120.47
2019-01-25T04:47:30.850Z,124.43
2019-01-25T04:50:15.830Z,124.03
2019-01-25T04:52:58.326Z,128.77
2019-01-25T04:55:49.655Z,121.00
2019-01-25T04:58:34.237Z,123.53
2019-01-25T05:01:19.225Z,133.97
2019-01-25T05:04:03.410Z,142.10
2019-01-25T05:06:48.345Z,123.63
2019-01-25T05:09:33.695Z,127.97
2019-01-25T05:12:18.307Z,133.43
2019-01-25T05:15:03.433Z,127.37
2019-01-25T05:17:48.804Z,123.87
2019-01-25T05:20:33.632Z,136.10
2019-01-25T05:23:18.021Z,132.47
2019-01-25T05:26:02.259Z,130.97
2019-01-25T05:28:46.999Z,134.87
2019-01-25T05:31:32.216Z,117.90
2019-01-25T05:34:17.277Z,152.93
2019-01-25T05:37:02.283Z,132.03
2019-01-25T05:39:47.336Z,126.50
2019-01-25T05:42:32.391Z,121.33
2019-01-25T05:45:17.479Z,122.37
2019-01-25T05:48:02.400Z,113.17
2019-01-25T05:50:46.712Z,107.27
2019-01-25T05:53:31.827Z,118.23
2019-01-25T05:56:16.556Z,127.80
2019-01-25T05:59:01.328Z,100.73
2019-01-25T06:01:46.087Z,113.90
2019-01-25T06:04:30.870Z,111.43
2019-01-25T06:07:15.721Z,117.53
2019-01-25T06:10:00.621Z,105.10
2019-01-25T06:12:45.457Z,115.87
2019-01-25T06:15:30.550Z,131.43
2019-01-25T06:18:15.456Z,115.77
2019-01-25T06:21:00.551Z,114.03
2019-01-25T06:23:45.449Z,127.63
2019-01-25T06:26:29.671Z,123.67
2019-01-25T06:29:14.638Z,115.63
2019-01-25T06:31:59.655Z,122.27
2019-01-25T06:34:44.646Z,110.33
2019-01-25T06:37:29.583Z,120.27
2019-01-25T06:40:14.497Z,115.87
2019-01-25T06:42:59.180Z,116.77
2019-01-25T06:45:44.142Z,118.97
2019-01-25T06:48:28.862Z,124.60
2019-01-25T06:51:13.614Z,118.57
2019-01-25T06:53:58.538Z,125.60
2019-01-25T06:56:43.315Z,110.03
2019-01-25T06:59:35.753Z,132.33
2019-01-25T07:02:25.584Z,124.33
2019-01-25T07:05:10.333Z,121.43
2019-01-25T07:07:55.360Z,106.70
2019-01-25T07:10:39.495Z,131.30
2019-01-25T07:13:24.413Z,120.67
2019-01-25T07:16:09.520Z,118.80
2019-01-25T07:18:54.613Z,114.60
2019-01-25T07:21:39.427Z,122.07
2019-01-25T07:24:24.570Z,125.63
2019-01-25T07:27:09.700Z,132.97
2019-01-25T07:29:54.834Z,129.70
2019-01-25T07:32:39.940Z,131.17
2019-01-25T07:35:24.990Z,123.73
2019-01-25T07:38:10.036Z,123.63
2019-01-25T07:40:54.927Z,148.10
2019-01-25T07:43:39.965Z,125.80
2019-01-25T07:46:25.159Z,124.50
2019-01-25T07:49:10.186Z,129.87
2019-01-25T07:51:54.459Z,122.53
2019-01-25T07:54:26.196Z,132.67
2019-01-25T07:56:57.830Z,140.83
2019-01-25T07:59:29.456Z,118.40
2019-01-25T08:02:01.154Z,133.30
2019-01-25T08:04:32.882Z,114.83
2019-01-25T08:07:04.599Z,120.80
2019-01-25T08:09:36.348Z,115.50
2019-01-25T08:12:08.424Z,124.57
2019-01-25T08:14:40.241Z,113.77
2019-01-25T08:17:11.906Z,102.60
2019-01-25T08:19:43.649Z,110.83
2019-01-25T08:22:15.301Z,109.83
2019-01-25T08:24:46.936Z,104.50
2019-01-25T08:27:18.593Z,116.40
2019-01-25T08:29:50.222Z,111.10
2019-01-25T08:32:21.966Z,110.13
2019-01-25T08:34:53.864Z,99.90
2019-01-25T08:37:25.493Z,99.60
2019-01-25T08:39:57.259Z,105.10
2019-01-25T08:42:28.955Z,97.43
2019-01-25T08:45:01.070Z,114.67
2019-01-25T08:47:32.939Z,102.10
2019-01-25T08:50:07.794Z,103.53
2019-01-25T08:52:39.602Z,113.07
2019-01-25T08:55:11.540Z,132.60
2019-01-25T08:57:43.278Z,111.10
2019-01-25T09:00:18.113Z,103.70
2019-01-25T09:02:50.274Z,94.93
2019-01-25T09:05:22.211Z,105.80
2019-01-25T09:07:53.846Z,94.00
2019-01-25T09:10:25.527Z,99.97
2019-01-25T09:12:57.159Z,107.83
2019-01-25T09:15:29.065Z,92.60
2019-01-25T09:18:00.914Z,87.00
2019-01-25T09:20:32.555Z,92.50
2019-01-25T09:23:04.214Z,90.07
2019-01-25T09:25:35.866Z,87.47
2019-01-25T09:28:07.511Z,83.60
2019-01-25T09:30:39.136Z,78.87
2019-01-25T09:33:10.865Z,78.57
2019-01-25T09:35:42.513Z,93.73
2019-01-25T09:38:14.176Z,89.07
2019-01-25T09:40:45.935Z,82.30
2019-01-25T09:43:17.585Z,87.80
2019-01-25T09:45:49.342Z,88.80
2019-01-25T09:48:20.995Z,94.60
2019-01-25T09:50:53.079Z,95.57
2019-01-25T09:53:25.149Z,86.93
2019-01-25T09:55:56.777Z,81.97
2019-01-25T09:58:28.422Z,93.60
2019-01-25T10:01:06.232Z,94.43
2019-01-25T10:03:37.890Z,88.63
2019-01-25T10:06:10.168Z,101.67
2019-01-25T10:08:42.555Z,105.67
2019-01-25T10:11:14.783Z,94.57
2019-01-25T10:13:46.510Z,118.13
2019-01-25T10:16:18.256Z,131.43
2019-01-25T10:18:49.905Z,93.97
2019-01-25T10:21:21.528Z,88.27
2019-01-25T10:23:53.201Z,93.63
2019-01-25T10:26:24.841Z,96.03
2019-01-25T10:28:56.503Z,106.40
2019-01-25T10:31:28.128Z,95.33
2019-01-25T10:33:59.769Z,118.43
2019-01-25T10:36:31.506Z,95.87
2019-01-25T10:39:06.393Z,94.07
2019-01-25T10:41:38.044Z,99.53
2019-01-25T10:44:09.785Z,93.53
2019-01-25T10:46:41.517Z,98.00
2019-01-25T10:49:13.175Z,100.73
2019-01-25T10:51:44.806Z,102.07
2019-01-25T10:54:16.480Z,94.60
2019-01-25T10:56:48.138Z,105.40
2019-01-25T10:59:19.782Z,101.10
2019-01-25T11:01:51.412Z,104.53
2019-01-25T11:04:23.082Z,83.10
2019-01-25T11:06:54.726Z,97.43
2019-01-25T11:09:26.371Z,89.73
2019-01-25T11:11:58.013Z,85.80
2019-01-25T11:14:29.671Z,91.27
2019-01-25T11:17:01.713Z,74.63
2019-01-25T11:19:34.014Z,85.03
2019-01-25T11:22:05.740Z,89.63
2019-01-25T11:24:37.427Z,91.43
2019-01-25T11:27:09.064Z,94.50
2019-01-25T11:29:40.728Z,92.37
2019-01-25T11:32:12.381Z,91.83
2019-01-25T11:34:44.038Z,98.10
2019-01-25T11:37:15.670Z,92.60
2019-01-25T11:39:49.152Z,96.17
2019-01-25T11:42:20.832Z,100.40
2019-01-25T11:44:52.473Z,96.60
2019-01-25T11:47:24.116Z,95.93
2019-01-25T11:49:55.793Z,113.10
2019-01-25T11:52:27.436Z,96.27
2019-01-25T11:54:59.085Z,101.17
2019-01-25T11:57:30.713Z,95.60
2019-01-25T12:00:04.692Z,125.00
2019-01-25T12:02:36.453Z,127.57
2019-01-25T12:05:11.158Z,112.93
2019-01-25T12:07:42.809Z,95.83
2019-01-25T12:10:15.506Z,124.90
2019-01-25T12:12:47.156Z,118.50
2019-01-25T12:15:19.017Z,108.07
2019-01-25T12:17:50.844Z,100.93
2019-01-25T12:20:27.015Z,99.40
2019-01-25T12:22:58.754Z,119.40
2019-01-25T12:25:30.608Z,117.90
2019-01-25T12:28:05.393Z,98.63
2019-01-25T12:30:38.251Z,97.33
2019-01-25T12:33:10.062Z,112.00
2019-01-25T12:35:42.750Z,98.63
2019-01-25T12:38:14.495Z,96.57
2019-01-25T12:40:46.124Z,99.20
2019-01-25T12:43:23.876Z,89.53
2019-01-25T12:45:51.321Z,92.50
2019-01-25T12:48:22.948Z,89.43
2019-01-25T12:51:16.903Z,108.63
2019-01-25T12:53:48.757Z,106.83
2019-01-25T12:56:20.509Z,117.80
2019-01-25T12:58:52.329Z,104.03
2019-01-25T13:01:23.969Z,122.60
2019-01-25T13:03:55.598Z,116.43
2019-01-25T13:06:27.233Z,104.93
2019-01-25T13:08:58.864Z,83.63
2019-01-25T13:11:30.508Z,85.30
2019-01-25T13:14:02.153Z,102.93
2019-01-25T13:16:33.915Z,99.60
2019-01-25T13:19:05.533Z,88.07
2019-01-25T13:21:37.182Z,83.20
2019-01-25T13:24:08.836Z,88.00
2019-01-25T13:26:40.481Z,89.17
2019-01-25T13:29:12.108Z,108.93
2019-01-25T13:31:43.957Z,102.63
2019-01-25T13:34:15.693Z,109.50
2019-01-25T13:36:47.736Z,103.97
2019-01-25T13:39:19.492Z,107.13
2019-01-25T13:41:51.165Z,88.00
2019-01-25T13:44:22.896Z,96.47
2019-01-25T13:46:54.533Z,91.83
2019-01-25T13:49:26.174Z,104.63
2019-01-25T13:51:57.812Z,80.40
2019-01-25T13:54:29.523Z,92.43
2019-01-25T13:57:01.241Z,99.03
2019-01-25T13:59:32.860Z,101.10
2019-01-25T14:02:04.601Z,97.73
2019-01-25T14:04:36.249Z,84.10
2019-01-25T14:07:07.901Z,101.67
2019-01-25T14:09:39.546Z,84.33
2019-01-25T14:12:11.214Z,95.73
2019-01-25T14:14:42.873Z,83.00
2019-01-25T14:17:14.529Z,89.80
2019-01-25T14:19:46.166Z,74.67
2019-01-25T14:22:17.798Z,81.97
2019-01-25T14:24:49.416Z,84.13
2019-01-25T14:27:21.077Z,100.37
2019-01-25T14:29:52.721Z,90.43
2019-01-25T14:32:24.363Z,96.03
2019-01-25T14:34:56.001Z,103.17
2019-01-25T14:37:27.650Z,91.47
2019-01-25T14:39:59.545Z,85.27
2019-01-25T14:42:31.194Z,77.50
2019-01-25T14:45:04.086Z,84.47
2019-01-25T14:47:35.717Z,107.40
2019-01-25T14:50:10.915Z,79.67
2019-01-25T14:52:42.669Z,99.37
2019-01-25T14:55:14.418Z,78.03
2019-01-25T14:57:46.990Z,74.23
2019-01-25T15:00:18.718Z,91.87
2019-01-25T15:02:50.367Z,97.50
2019-01-25T15:05:22.002Z,95.83
2019-01-25T15:07:53.628Z,93.00
2019-01-25T15:10:25.448Z,78.07
2019-01-25T15:12:57.497Z,73.27
2019-01-25T15:15:29.354Z,74.20
2019-01-25T15:18:00.980Z,81.37
2019-01-25T15:20:32.628Z,94.70
2019-01-25T15:23:04.258Z,85.97
2019-01-25T15:25:35.897Z,76.97
2019-01-25T15:28:07.550Z,83.17
2019-01-25T15:30:39.269Z,91.90
2019-01-25T15:33:12.558Z,81.43
2019-01-25T15:35:44.351Z,77.27
2019-01-25T15:38:16.209Z,68.97
2019-01-25T15:40:47.861Z,91.07
2019-01-25T15:43:19.526Z,83.67
2019-01-25T15:45:51.202Z,82.97
2019-01-25T15:48:22.903Z,79.10
2019-01-25T15:50:54.546Z,90.97
2019-01-25T15:53:26.173Z,76.97
2019-01-25T15:55:57.806Z,82.10
2019-01-25T15:58:29.460Z,83.50
2019-01-25T16:01:01.185Z,69.37
2019-01-25T16:03:32.836Z,72.73
2019-01-25T16:06:04.571Z,79.97
2019-01-25T16:08:36.245Z,81.47
2019-01-25T16:11:07.866Z,71.63
2019-01-25T16:13:39.529Z,70.80
2019-01-25T16:16:11.193Z,80.57
2019-01-25T16:18:42.836Z,75.77
2019-01-25T16:21:15.513Z,84.37
2019-01-25T16:23:48.297Z,80.33
2019-01-25T16:26:21.302Z,75.93
2019-01-25T16:28:52.946Z,77.17
2019-01-25T16:31:24.618Z,76.27
2019-01-25T16:33:56.693Z,78.83
2019-01-25T16:36:29.380Z,77.83
2019-01-25T16:39:01.011Z,77.13
2019-01-25T16:41:32.680Z,81.70
2019-01-25T16:44:04.871Z,76.07
2019-01-25T16:46:37.010Z,96.53
2019-01-25T16:49:08.830Z,68.17
2019-01-25T16:51:40.508Z,77.60
2019-01-25T16:54:12.183Z,90.60
2019-01-25T16:56:43.824Z,110.30
2019-01-25T16:59:15.497Z,88.37
2019-01-25T17:01:47.139Z,99.67
2019-01-25T17:04:18.808Z,92.87
2019-01-25T17:06:50.452Z,88.67
2019-01-25T17:09:22.170Z,99.33
2019-01-25T17:11:53.835Z,94.50
2019-01-25T17:14:33.017Z,92.43
2019-01-25T17:16:59.138Z,95.00
2019-01-25T17:19:30.795Z,93.63
2019-01-25T17:22:03.066Z,101.60
2019-01-25T17:24:34.712Z,99.07
2019-01-25T17:27:06.473Z,95.13
2019-01-25T17:29:38.132Z,102.57
2019-01-25T17:32:09.777Z,106.30
2019-01-25T17:34:41.457Z,104.60
2019-01-25T17:37:13.094Z,105.50
2019-01-25T17:39:44.763Z,102.70
2019-01-25T17:42:16.418Z,110.40
2019-01-25T17:44:48.074Z,115.07
2019-01-25T17:47:19.734Z,106.27
2019-01-25T17:49:51.374Z,115.33
2019-01-25T17:52:23.016Z,106.50
2019-01-25T17:54:54.674Z,115.43
2019-01-25T17:57:26.315Z,122.87
2019-01-25T17:59:57.957Z,113.77
2019-01-25T18:02:29.611Z,113.37
2019-01-25T18:05:01.358Z,117.60
2019-01-25T18:07:33.020Z,124.33
2019-01-25T18:10:06.606Z,96.93
2019-01-25T18:12:38.255Z,97.53
2019-01-25T18:15:10.545Z,99.80
2019-01-25T18:17:42.446Z,111.43
2019-01-25T18:20:14.621Z,97.73
2019-01-25T18:22:46.322Z,105.33
2019-01-25T18:25:28.426Z,104.37
2019-01-25T18:28:00.740Z,82.23
2019-01-25T18:30:45.722Z,96.80
2019-01-25T18:33:17.454Z,108.73
2019-01-25T18:35:49.117Z,99.83
2019-01-25T18:38:20.798Z,99.80
2019-01-25T18:40:52.480Z,101.30
2019-01-25T18:43:24.121Z,84.77
2019-01-25T18:45:55.779Z,88.17
2019-01-25T18:48:27.421Z,93.60
2019-01-25T18:50:59.145Z,97.23
2019-01-25T18:53:30.792Z,101.83
2019-01-25T18:56:04.233Z,93.13
2019-01-25T18:58:35.898Z,87.00
2019-01-25T19:01:07.549Z,96.83
2019-01-25T19:03:39.285Z,91.03
2019-01-25T19:06:10.997Z,75.10
2019-01-25T19:08:42.771Z,82.30
2019-01-25T19:11:14.430Z,72.40
2019-01-25T19:13:46.064Z,86.63
2019-01-25T19:16:17.729Z,72.33
2019-01-25T19:18:49.482Z,71.40
2019-01-25T19:21:21.137Z,64.47
2019-01-25T19:23:52.761Z,74.73
2019-01-25T19:26:24.396Z,64.13
2019-01-25T19:28:56.049Z,58.47
2019-01-25T19:31:27.698Z,54.50
2019-01-25T19:33:59.337Z,52.27
2019-01-25T19:36:30.985Z,47.43
2019-01-25T19:39:07.779Z,50.83
2019-01-25T19:41:40.757Z,49.30
2019-01-25T19:44:12.610Z,50.60
2019-01-25T19:46:44.371Z,55.63
2019-01-25T19:49:16.002Z,52.60
2019-01-25T19:51:47.779Z,57.70
2019-01-25T19:54:19.442Z,72.43
2019-01-25T19:56:51.214Z,59.83
2019-01-25T19:59:22.864Z,65.10
2019-01-25T20:01:54.532Z,65.97
2019-01-25T20:04:26.195Z,45.43
2019-01-25T20:06:57.964Z,60.57
2019-01-25T20:09:29.621Z,53.83
2019-01-25T20:12:01.296Z,49.73
2019-01-25T20:14:32.963Z,63.97
2019-01-25T20:17:04.808Z,69.00
2019-01-25T20:19:36.453Z,75.77
2019-01-25T20:22:08.297Z,55.27
2019-01-25T20:24:39.950Z,64.77
2019-01-25T20:27:11.628Z,53.73
2019-01-25T20:29:43.272Z,49.17
2019-01-25T20:32:14.934Z,71.97
2019-01-25T20:34:46.582Z,61.50
2019-01-25T20:37:18.237Z,60.43
2019-01-25T20:39:49.891Z,67.13
2019-01-25T20:42:21.638Z,63.63
2019-01-25T20:44:53.322Z,52.93
2019-01-25T20:47:24.968Z,63.77
2019-01-25T20:49:56.602Z,56.37
2019-01-25T20:52:28.273Z,56.73
2019-01-25T20:55:00.020Z,59.17
2019-01-25T20:57:31.765Z,59.40
2019-01-25T21:00:08.578Z,54.93
2019-01-25T21:02:40.410Z,61.30
2019-01-25T21:05:12.577Z,54.27
2019-01-25T21:07:44.339Z,58.57
2019-01-25T21:10:17.622Z,48.80
2019-01-25T21:12:49.381Z,60.97
2019-01-25T21:15:22.218Z,68.20
2019-01-25T21:17:54.417Z,53.87
2019-01-25T21:20:28.743Z,64.07
2019-01-25T21:23:00.797Z,57.73
2019-01-25T21:25:32.650Z,51.20
2019-01-25T21:28:04.838Z,61.83
2019-01-25T21:30:36.685Z,60.27
2019-01-25T21:33:08.354Z,66.50
2019-01-25T21:35:39.992Z,53.17
2019-01-25T21:38:11.711Z,64.13
2019-01-25T21:40:43.508Z,56.67
2019-01-25T21:43:15.275Z,61.53
2019-01-25T21:45:46.905Z,53.57
2019-01-25T21:48:18.546Z,64.53
2019-01-25T21:50:50.185Z,67.60
2019-01-25T21:53:21.855Z,68.83
2019-01-25T21:55:53.490Z,64.73
2019-01-25T21:58:25.137Z,65.40
2019-01-25T22:00:56.764Z,71.53
2019-01-25T22:03:28.419Z,67.27
2019-01-25T22:06:00.177Z,62.43
2019-01-25T22:08:32.031Z,62.93
2019-01-25T22:11:04.111Z,72.27
2019-01-25T22:13:35.755Z,65.93
2019-01-25T22:16:07.395Z,61.33
2019-01-25T22:18:39.146Z,63.03
2019-01-25T22:21:10.785Z,61.93
2019-01-25T22:23:42.486Z,67.73
2019-01-25T22:26:14.155Z,57.03
2019-01-25T22:28:45.902Z,68.37
2019-01-25T22:31:17.536Z,52.57
2019-01-25T22:33:49.189Z,66.00
2019-01-25T22:36:20.829Z,68.03
2019-01-25T22:38:52.541Z,57.93
2019-01-25T22:41:24.309Z,70.17
2019-01-25T22:43:55.945Z,60.43
2019-01-25T22:46:27.589Z,63.87
2019-01-25T22:48:59.238Z,66.20
2019-01-25T22:51:30.913Z,63.53
2019-01-25T22:54:02.658Z,62.03
2019-01-25T22:56:34.338Z,58.97
2019-01-25T22:59:06.033Z,46.50
2019-01-25T23:01:38.010Z,63.57
2019-01-25T23:05:00.968Z,68.00
2019-01-25T23:07:32.833Z,68.90
2019-01-25T23:10:13.412Z,76.50
2019-01-25T23:12:45.097Z,58.93
2019-01-25T23:15:17.235Z,61.40
2019-01-25T23:17:48.872Z,75.23
2019-01-25T23:20:20.698Z,62.47
2019-01-25T23:22:52.348Z,67.10
2019-01-25T23:25:23.990Z,76.30
2019-01-25T23:27:55.647Z,74.50
2019-01-25T23:30:27.288Z,58.63
2019-01-25T23:32:58.936Z,59.33
2019-01-25T23:35:30.623Z,69.90
2019-01-25T23:38:02.349Z,77.00
2019-01-25T23:40:33.988Z,67.20
2019-01-25T23:43:05.637Z,81.53
2019-01-25T23:45:37.306Z,68.47
2019-01-25T23:48:08.961Z,69.43
2019-01-25T23:50:40.606Z,74.43
2019-01-25T23:53:12.270Z,64.13
2019-01-25T23:55:43.946Z,64.80
2019-01-25T23:58:15.613Z,60.07
